Time,TemperatureF,DewpointF,PressureIn,WindDirection,WindDirectionDegrees,WindSpeedMPH,WindSpeedGustMPH,Humidity,HourlyPrecipIn,Conditions,Clouds,dailyrainin,SoftwareType,DateUTC
2013-01-14 00:00:00,7.6,2.2,30.39,WSW,258,1.0,2.0,78,0.00,,,0.00,VWS V14.01,2013-01-14 06:00:00,
2013-01-14 00:03:00,7.4,2.0,30.40,North,353,0.0,0.0,78,0.00,,,0.00,VWS V14.01,2013-01-14 06:03:00,
2013-01-14 00:08:00,7.2,1.8,30.40,North,353,0.0,0.0,78,0.00,,,0.00,VWS V14.01,2013-01-14 06:08:00,
2013-01-14 00:13:00,7.0,1.9,30.40,North,353,0.0,0.0,79,0.00,,,0.00,VWS V14.01,2013-01-14 06:13:00,
2013-01-14 00:15:00,7.4,1.7,30.39,WSW,256,1.0,2.0,77,0.00,,,0.00,VWS V14.01,2013-01-14 06:15:00,
2013-01-14 00:18:00,7.0,2.2,30.40,North,353,0.0,0.0,80,0.00,,,0.00,VWS V14.01,2013-01-14 06:18:00,
2013-01-14 00:23:00,7.0,1.9,30.40,NNW,328,1.0,2.0,79,0.00,,,0.00,VWS V14.01,2013-01-14 06:23:00,
2013-01-14 00:28:00,6.7,1.9,30.40,NW,319,0.0,2.0,80,0.00,,,0.00,VWS V14.01,2013-01-14 06:28:00,
2013-01-14 00:30:00,7.2,1.8,30.39,WSW,257,0.0,2.0,78,0.00,,,0.00,VWS V14.01,2013-01-14 06:30:00,
2013-01-14 00:33:00,6.9,2.0,30.40,NW,316,0.0,2.0,80,0.00,,,0.00,VWS V14.01,2013-01-14 06:33:00,
2013-01-14 00:38:00,7.0,1.9,30.40,NW,312,2.0,2.0,79,0.00,,,0.00,VWS V14.01,2013-01-14 06:38:00,
2013-01-14 00:43:00,7.2,2.3,30.40,WNW,284,1.0,2.0,80,0.00,,,0.00,VWS V14.01,2013-01-14 06:43:00,
2013-01-14 00:45:00,7.6,1.9,30.38,West,263,0.0,2.0,77,0.00,,,0.00,VWS V14.01,2013-01-14 06:45:00,
2013-01-14 00:48:00,7.6,1.9,30.40,West,265,0.0,2.0,77,0.00,,,0.00,VWS V14.01,2013-01-14 06:48:00,
2013-01-14 00:53:00,7.7,2.0,30.40,West,264,1.0,2.0,77,0.00,,,0.00,VWS V14.01,2013-01-14 06:53:00,
2013-01-14 00:58:00,7.6,1.9,30.40,West,261,0.0,2.0,77,0.00,,,0.00,VWS V14.01,2013-01-14 06:58:00,
2013-01-14 01:00:00,7.0,1.9,30.39,West,264,2.0,2.0,79,0.00,,,0.00,VWS V14.01,2013-01-14 07:00:00,
2013-01-14 01:03:00,7.6,1.9,30.39,WSW,254,2.0,2.0,77,0.00,,,0.00,VWS V14.01,2013-01-14 07:03:00,
2013-01-14 01:08:00,7.2,1.5,30.39,WSW,253,2.0,2.0,77,0.00,,,0.00,VWS V14.01,2013-01-14 07:08:00,
2013-01-14 01:13:00,7.4,2.0,30.39,WSW,254,2.0,2.0,78,0.00,,,0.00,VWS V14.01,2013-01-14 07:13:00,
2013-01-14 01:15:00,6.1,1.5,30.39,West,267,0.0,2.0,81,0.00,,,0.00,VWS V14.01,2013-01-14 07:15:00,
2013-01-14 01:18:00,7.4,1.7,30.39,WSW,257,1.0,2.0,77,0.00,,,0.00,VWS V14.01,2013-01-14 07:18:00,
2013-01-14 01:23:00,7.0,1.6,30.39,WSW,257,0.0,2.0,78,0.00,,,0.00,VWS V14.01,2013-01-14 07:23:00,
2013-01-14 01:28:00,7.0,1.6,30.39,WSW,257,2.0,2.0,78,0.00,,,0.00,VWS V14.01,2013-01-14 07:28:00,
2013-01-14 01:30:00,5.6,1.3,30.40,West,274,1.0,2.0,82,0.00,,,0.00,VWS V14.01,2013-01-14 07:30:00,
2013-01-14 01:33:00,7.2,1.8,30.39,WSW,257,0.0,2.0,78,0.00,,,0.00,VWS V14.01,2013-01-14 07:33:00,
2013-01-14 01:38:00,7.4,2.0,30.39,West,260,1.0,2.0,78,0.00,,,0.00,VWS V14.01,2013-01-14 07:38:00,
2013-01-14 01:43:00,7.6,2.2,30.39,West,263,1.0,2.0,78,0.00,,,0.00,VWS V14.01,2013-01-14 07:43:00,
2013-01-14 01:45:00,6.1,2.3,30.40,West,281,0.0,2.0,84,0.00,,,0.00,VWS V14.01,2013-01-14 07:45:00,
2013-01-14 01:48:00,7.6,2.2,30.38,West,264,0.0,2.0,78,0.00,,,0.00,VWS V14.01,2013-01-14 07:48:00,
2013-01-14 01:53:00,7.4,2.0,30.38,West,264,2.0,2.0,78,0.00,,,0.00,VWS V14.01,2013-01-14 07:53:00,
2013-01-14 01:58:00,7.2,1.8,30.38,West,264,0.0,2.0,78,0.00,,,0.00,VWS V14.01,2013-01-14 07:58:00,
2013-01-14 02:00:00,6.1,2.6,30.41,WNW,282,1.0,2.0,85,0.00,,,0.00,VWS V14.01,2013-01-14 08:00:00,
2013-01-14 02:03:00,6.9,1.8,30.39,West,264,0.0,2.0,79,0.00,,,0.00,VWS V14.01,2013-01-14 08:03:00,
2013-01-14 02:08:00,6.5,1.7,30.39,West,265,1.0,2.0,80,0.00,,,0.00,VWS V14.01,2013-01-14 08:08:00,
2013-01-14 02:13:00,6.3,1.7,30.39,West,267,0.0,2.0,81,0.00,,,0.00,VWS V14.01,2013-01-14 08:13:00,
2013-01-14 02:15:00,6.1,2.6,30.41,WNW,282,0.0,2.0,85,0.00,,,0.00,VWS V14.01,2013-01-14 08:15:00,
2013-01-14 02:18:00,6.1,1.5,30.39,West,267,2.0,2.0,81,0.00,,,0.00,VWS V14.01,2013-01-14 08:18:00,
2013-01-14 02:23:00,5.8,1.2,30.39,West,268,1.0,2.0,81,0.00,,,0.00,VWS V14.01,2013-01-14 08:23:00,
2013-01-14 02:28:00,5.6,1.3,30.39,West,271,1.0,2.0,82,0.00,,,0.00,VWS V14.01,2013-01-14 08:28:00,
2013-01-14 02:30:00,5.4,2.1,30.41,WNW,282,0.0,2.0,86,0.00,,,0.00,VWS V14.01,2013-01-14 08:30:00,
2013-01-14 02:33:00,5.6,1.6,30.40,West,277,0.0,2.0,83,0.00,,,0.00,VWS V14.01,2013-01-14 08:33:00,
2013-01-14 02:38:00,5.8,1.8,30.40,West,278,2.0,2.0,83,0.00,,,0.00,VWS V14.01,2013-01-14 08:38:00,
2013-01-14 02:43:00,6.0,2.2,30.40,West,280,0.0,2.0,84,0.00,,,0.00,VWS V14.01,2013-01-14 08:43:00,
2013-01-14 02:45:00,4.7,1.4,30.41,WNW,282,0.0,0.0,86,0.00,,,0.00,VWS V14.01,2013-01-14 08:45:00,
2013-01-14 02:48:00,6.1,2.1,30.40,West,281,0.0,2.0,83,0.00,,,0.00,VWS V14.01,2013-01-14 08:48:00,
2013-01-14 02:53:00,6.1,2.3,30.40,West,281,1.0,2.0,84,0.00,,,0.00,VWS V14.01,2013-01-14 08:53:00,
2013-01-14 02:58:00,6.1,2.3,30.40,WNW,282,1.0,2.0,84,0.00,,,0.00,VWS V14.01,2013-01-14 08:58:00,
2013-01-14 03:00:00,4.7,2.4,30.40,WNW,282,0.0,1.0,90,0.00,,,0.00,VWS V14.01,2013-01-14 09:00:00,
2013-01-14 03:03:00,6.1,2.6,30.41,WNW,282,1.0,2.0,85,0.00,,,0.00,VWS V14.01,2013-01-14 09:03:00,
2013-01-14 03:08:00,6.1,2.6,30.41,WNW,282,0.0,2.0,85,0.00,,,0.00,VWS V14.01,2013-01-14 09:08:00,
2013-01-14 03:14:00,6.1,2.6,30.41,WNW,282,0.0,2.0,85,0.00,,,0.00,VWS V14.01,2013-01-14 09:14:00,
2013-01-14 03:15:00,5.4,3.1,30.41,WNW,282,0.0,0.0,90,0.00,,,0.00,VWS V14.01,2013-01-14 09:15:00,
2013-01-14 03:19:00,6.0,2.2,30.41,WNW,282,1.0,2.0,84,0.00,,,0.00,VWS V14.01,2013-01-14 09:19:00,
2013-01-14 03:24:00,5.6,2.1,30.41,WNW,282,0.0,2.0,85,0.00,,,0.00,VWS V14.01,2013-01-14 09:24:00,
2013-01-14 03:29:00,5.4,2.1,30.41,WNW,282,0.0,2.0,86,0.00,,,0.00,VWS V14.01,2013-01-14 09:29:00,
2013-01-14 03:30:00,5.4,1.9,30.40,WNW,282,0.0,2.0,85,0.00,,,0.00,VWS V14.01,2013-01-14 09:30:00,
2013-01-14 03:34:00,5.4,2.1,30.41,WNW,282,0.0,0.0,86,0.00,,,0.00,VWS V14.01,2013-01-14 09:34:00,
2013-01-14 03:39:00,5.0,1.7,30.41,WNW,282,0.0,0.0,86,0.00,,,0.00,VWS V14.01,2013-01-14 09:39:00,
2013-01-14 03:44:00,4.8,1.5,30.41,WNW,282,0.0,0.0,86,0.00,,,0.00,VWS V14.01,2013-01-14 09:44:00,
2013-01-14 03:45:00,5.2,2.2,30.40,WNW,282,0.0,0.0,87,0.00,,,0.00,VWS V14.01,2013-01-14 09:45:00,
2013-01-14 03:49:00,4.5,1.5,30.41,WNW,282,0.0,0.0,87,0.00,,,0.00,VWS V14.01,2013-01-14 09:49:00,
2013-01-14 03:54:00,4.5,1.7,30.41,WNW,282,1.0,1.0,88,0.00,,,0.00,VWS V14.01,2013-01-14 09:54:00,
2013-01-14 03:59:00,4.5,2.0,30.41,WNW,282,0.0,1.0,89,0.00,,,0.00,VWS V14.01,2013-01-14 09:59:00,
2013-01-14 04:00:00,3.0,-0.2,30.42,WSW,258,0.0,2.0,86,0.00,,,0.00,VWS V14.01,2013-01-14 10:00:00,
2013-01-14 04:04:00,4.8,2.5,30.40,WNW,282,0.0,0.0,90,0.00,,,0.00,VWS V14.01,2013-01-14 10:04:00,
2013-01-14 04:09:00,5.2,2.9,30.40,WNW,282,0.0,0.0,90,0.00,,,0.00,VWS V14.01,2013-01-14 10:09:00,
2013-01-14 04:14:00,5.4,3.1,30.40,WNW,282,0.0,0.0,90,0.00,,,0.00,VWS V14.01,2013-01-14 10:14:00,
2013-01-14 04:15:00,2.8,1.0,30.42,WSW,258,0.0,1.0,92,0.00,,,0.00,VWS V14.01,2013-01-14 10:15:00,
2013-01-14 04:19:00,5.4,3.1,30.41,WNW,282,0.0,0.0,90,0.00,,,0.00,VWS V14.01,2013-01-14 10:19:00,
2013-01-14 04:24:00,5.8,3.5,30.41,WNW,282,0.0,1.0,90,0.00,,,0.00,VWS V14.01,2013-01-14 10:24:00,
2013-01-14 04:29:00,5.6,2.1,30.41,WNW,282,0.0,2.0,85,0.00,,,0.00,VWS V14.01,2013-01-14 10:29:00,
2013-01-14 04:30:00,3.9,2.6,30.42,WSW,258,0.0,2.0,94,0.00,,,0.00,VWS V14.01,2013-01-14 10:30:00,
2013-01-14 04:34:00,5.4,2.1,30.40,WNW,282,0.0,0.0,86,0.00,,,0.00,VWS V14.01,2013-01-14 10:34:00,
2013-01-14 04:39:00,5.2,2.2,30.40,WNW,282,0.0,0.0,87,0.00,,,0.00,VWS V14.01,2013-01-14 10:39:00,
2013-01-14 04:44:00,5.2,2.2,30.40,WNW,282,0.0,0.0,87,0.00,,,0.00,VWS V14.01,2013-01-14 10:44:00,
2013-01-14 04:45:00,3.7,1.7,30.42,WSW,258,0.0,2.0,91,0.00,,,0.00,VWS V14.01,2013-01-14 10:45:00,
2013-01-14 04:49:00,5.4,2.4,30.40,WNW,282,0.0,0.0,87,0.00,,,0.00,VWS V14.01,2013-01-14 10:49:00,
2013-01-14 04:54:00,4.3,0.0,30.40,WSW,258,1.0,2.0,82,0.00,,,0.00,VWS V14.01,2013-01-14 10:54:00,
2013-01-14 04:59:00,3.2,-0.5,30.40,WSW,258,0.0,2.0,84,0.00,,,0.00,VWS V14.01,2013-01-14 10:59:00,
2013-01-14 05:00:00,3.2,1.6,30.43,WSW,258,0.0,0.0,93,0.00,,,0.00,VWS V14.01,2013-01-14 11:00:00,
2013-01-14 05:04:00,2.8,0.3,30.42,WSW,258,0.0,1.0,89,0.00,,,0.00,VWS V14.01,2013-01-14 11:04:00,
2013-01-14 05:09:00,2.6,0.6,30.42,WSW,258,0.0,1.0,91,0.00,,,0.00,VWS V14.01,2013-01-14 11:09:00,
2013-01-14 05:14:00,2.8,1.0,30.42,WSW,258,0.0,1.0,92,0.00,,,0.00,VWS V14.01,2013-01-14 11:14:00,
2013-01-14 05:15:00,3.2,1.6,30.44,WSW,258,0.0,0.0,93,0.00,,,0.00,VWS V14.01,2013-01-14 11:15:00,
2013-01-14 05:19:00,3.0,1.4,30.42,WSW,258,0.0,0.0,93,0.00,,,0.00,VWS V14.01,2013-01-14 11:19:00,
2013-01-14 05:24:00,3.4,2.1,30.42,WSW,258,0.0,0.0,94,0.00,,,0.00,VWS V14.01,2013-01-14 11:24:00,
2013-01-14 05:29:00,3.7,2.4,30.42,WSW,258,0.0,1.0,94,0.00,,,0.00,VWS V14.01,2013-01-14 11:29:00,
2013-01-14 05:30:00,3.0,1.2,30.45,WSW,258,0.0,1.0,92,0.00,,,0.00,VWS V14.01,2013-01-14 11:30:00,
2013-01-14 05:34:00,4.1,2.5,30.42,WSW,258,1.0,2.0,93,0.00,,,0.00,VWS V14.01,2013-01-14 11:34:00,
2013-01-14 05:39:00,4.1,2.3,30.42,WSW,258,0.0,2.0,92,0.00,,,0.00,VWS V14.01,2013-01-14 11:39:00,
2013-01-14 05:44:00,3.9,1.9,30.42,WSW,258,0.0,2.0,91,0.00,,,0.00,VWS V14.01,2013-01-14 11:44:00,
2013-01-14 05:45:00,3.0,1.4,30.45,WSW,258,0.0,0.0,93,0.00,,,0.00,VWS V14.01,2013-01-14 11:45:00,
2013-01-14 05:49:00,3.5,1.5,30.42,WSW,258,0.0,0.0,91,0.00,,,0.00,VWS V14.01,2013-01-14 11:49:00,
2013-01-14 05:54:00,3.4,1.6,30.42,WSW,258,0.0,0.0,92,0.00,,,0.00,VWS V14.01,2013-01-14 11:54:00,
2013-01-14 05:59:00,3.2,1.4,30.42,WSW,258,0.0,0.0,92,0.00,,,0.00,VWS V14.01,2013-01-14 11:59:00,
2013-01-14 06:00:00,3.2,1.2,30.47,WSW,258,0.0,0.0,91,0.00,,,0.00,VWS V14.01,2013-01-14 12:00:00,
2013-01-14 06:04:00,3.2,1.6,30.43,WSW,258,0.0,0.0,93,0.00,,,0.00,VWS V14.01,2013-01-14 12:04:00,
2013-01-14 06:09:00,3.4,1.8,30.43,WSW,258,0.0,0.0,93,0.00,,,0.00,VWS V14.01,2013-01-14 12:09:00,
2013-01-14 06:14:00,3.4,1.8,30.43,WSW,258,0.0,0.0,93,0.00,,,0.00,VWS V14.01,2013-01-14 12:14:00,
2013-01-14 06:15:00,2.2,-0.1,30.48,WSW,258,0.0,1.0,90,0.00,,,0.00,VWS V14.01,2013-01-14 12:15:00,
2013-01-14 06:19:00,3.2,1.6,30.44,WSW,258,0.0,1.0,93,0.00,,,0.00,VWS V14.01,2013-01-14 12:19:00,
2013-01-14 06:24:00,3.0,1.2,30.44,WSW,258,0.0,1.0,92,0.00,,,0.00,VWS V14.01,2013-01-14 12:24:00,
2013-01-14 06:29:00,3.0,1.2,30.44,WSW,258,0.0,1.0,92,0.00,,,0.00,VWS V14.01,2013-01-14 12:29:00,
2013-01-14 06:30:00,2.6,1.0,30.49,WSW,258,0.0,1.0,93,0.00,,,0.00,VWS V14.01,2013-01-14 12:30:00,
2013-01-14 06:34:00,2.8,1.0,30.45,WSW,258,0.0,0.0,92,0.00,,,0.00,VWS V14.01,2013-01-14 12:34:00,
2013-01-14 06:39:00,2.8,1.0,30.45,WSW,258,0.0,0.0,92,0.00,,,0.00,VWS V14.01,2013-01-14 12:39:00,
2013-01-14 06:44:00,3.0,1.4,30.45,WSW,258,0.0,0.0,93,0.00,,,0.00,VWS V14.01,2013-01-14 12:44:00,
2013-01-14 06:45:00,3.0,1.2,30.49,WSW,258,0.0,1.0,92,0.00,,,0.00,VWS V14.01,2013-01-14 12:45:00,
2013-01-14 06:49:00,3.2,1.6,30.45,WSW,258,0.0,0.0,93,0.00,,,0.00,VWS V14.01,2013-01-14 12:49:00,
2013-01-14 06:54:00,3.4,1.8,30.45,WSW,258,0.0,0.0,93,0.00,,,0.00,VWS V14.01,2013-01-14 12:54:00,
2013-01-14 06:59:00,3.4,1.6,30.45,WSW,258,0.0,0.0,92,0.00,,,0.00,VWS V14.01,2013-01-14 12:59:00,
2013-01-14 07:00:00,3.0,0.5,30.50,WSW,258,1.0,2.0,89,0.00,,,0.00,VWS V14.01,2013-01-14 13:00:00,
2013-01-14 07:04:00,3.0,0.7,30.47,WSW,258,0.0,0.0,90,0.00,,,0.00,VWS V14.01,2013-01-14 13:04:00,
2013-01-14 07:09:00,2.6,0.1,30.47,WSW,258,0.0,0.0,89,0.00,,,0.00,VWS V14.01,2013-01-14 13:09:00,
2013-01-14 07:14:00,2.2,-0.1,30.47,WSW,258,0.0,1.0,90,0.00,,,0.00,VWS V14.01,2013-01-14 13:14:00,
2013-01-14 07:15:00,1.1,-1.4,30.51,WSW,246,0.0,2.0,89,0.00,,,0.00,VWS V14.01,2013-01-14 13:15:00,
2013-01-14 07:19:00,2.2,0.2,30.48,WSW,258,0.0,1.0,91,0.00,,,0.00,VWS V14.01,2013-01-14 13:19:00,
2013-01-14 07:24:00,2.2,0.4,30.48,WSW,258,0.0,1.0,92,0.00,,,0.00,VWS V14.01,2013-01-14 13:24:00,
2013-01-14 07:29:00,2.4,0.8,30.48,WSW,258,0.0,1.0,93,0.00,,,0.00,VWS V14.01,2013-01-14 13:29:00,
2013-01-14 07:30:00,2.8,0.5,30.51,WSW,250,1.0,3.0,90,0.00,,,0.00,VWS V14.01,2013-01-14 13:30:00,
2013-01-14 07:34:00,2.6,1.0,30.49,WSW,258,0.0,0.0,93,0.00,,,0.00,VWS V14.01,2013-01-14 13:34:00,
2013-01-14 07:39:00,2.8,1.2,30.49,WSW,258,0.0,0.0,93,0.00,,,0.00,VWS V14.01,2013-01-14 13:39:00,
2013-01-14 07:44:00,3.0,1.4,30.49,WSW,258,0.0,1.0,93,0.00,,,0.00,VWS V14.01,2013-01-14 13:44:00,
2013-01-14 07:45:00,3.7,1.2,30.51,WSW,250,0.0,1.0,89,0.00,,,0.00,VWS V14.01,2013-01-14 13:45:00,
2013-01-14 07:49:00,3.0,1.2,30.49,WSW,258,0.0,0.0,92,0.00,,,0.00,VWS V14.01,2013-01-14 13:49:00,
2013-01-14 07:54:00,3.2,1.4,30.49,WSW,258,0.0,0.0,92,0.00,,,0.00,VWS V14.01,2013-01-14 13:54:00,
2013-01-14 07:59:00,3.0,0.7,30.49,WSW,258,2.0,2.0,90,0.00,,,0.00,VWS V14.01,2013-01-14 13:59:00,
2013-01-14 08:00:00,4.8,2.3,30.50,WSW,251,1.0,2.0,89,0.00,,,0.00,VWS V14.01,2013-01-14 14:00:00,
2013-01-14 08:04:00,2.6,0.1,30.50,WSW,258,1.0,2.0,89,0.00,,,0.00,VWS V14.01,2013-01-14 14:04:00,
2013-01-14 08:09:00,1.8,-0.7,30.50,WSW,247,1.0,2.0,89,0.00,,,0.00,VWS V14.01,2013-01-14 14:09:00,
2013-01-14 08:14:00,1.3,-1.2,30.50,WSW,246,0.0,2.0,89,0.00,,,0.00,VWS V14.01,2013-01-14 14:14:00,
2013-01-14 08:15:00,5.2,3.2,30.52,WSW,250,1.0,2.0,91,0.00,,,0.00,VWS V14.01,2013-01-14 14:15:00,
2013-01-14 08:19:00,1.1,-1.1,30.51,WSW,246,0.0,0.0,90,0.00,,,0.00,VWS V14.01,2013-01-14 14:19:00,
2013-01-14 08:24:00,1.5,-0.3,30.51,WSW,247,1.0,2.0,92,0.00,,,0.00,VWS V14.01,2013-01-14 14:24:00,
2013-01-14 08:29:00,2.6,0.6,30.51,WSW,250,0.0,3.0,91,0.00,,,0.00,VWS V14.01,2013-01-14 14:29:00,
2013-01-14 08:30:00,5.6,3.3,30.51,WSW,247,2.0,2.0,90,0.00,,,0.00,VWS V14.01,2013-01-14 14:30:00,
2013-01-14 08:34:00,3.0,0.5,30.51,WSW,250,0.0,1.0,89,0.00,,,0.00,VWS V14.01,2013-01-14 14:34:00,
2013-01-14 08:39:00,3.2,0.7,30.51,WSW,250,0.0,1.0,89,0.00,,,0.00,VWS V14.01,2013-01-14 14:39:00,
2013-01-14 08:44:00,3.5,1.2,30.51,WSW,250,0.0,1.0,90,0.00,,,0.00,VWS V14.01,2013-01-14 14:44:00,
2013-01-14 08:45:00,7.4,5.1,30.51,WSW,243,2.0,4.0,90,0.00,,,0.00,VWS V14.01,2013-01-14 14:45:00,
2013-01-14 08:49:00,3.9,1.4,30.51,WSW,250,0.0,0.0,89,0.00,,,0.00,VWS V14.01,2013-01-14 14:49:00,
2013-01-14 08:54:00,4.3,1.8,30.51,WSW,250,0.0,0.0,89,0.00,,,0.00,VWS V14.01,2013-01-14 14:54:00,
2013-01-14 08:59:00,4.7,2.2,30.51,WSW,250,0.0,2.0,89,0.00,,,0.00,VWS V14.01,2013-01-14 14:59:00,
2013-01-14 09:00:00,9.0,6.4,30.50,WSW,248,0.0,2.0,89,0.00,,,0.00,VWS V14.01,2013-01-14 15:00:00,
2013-01-14 09:04:00,4.8,2.3,30.50,WSW,253,1.0,2.0,89,0.00,,,0.00,VWS V14.01,2013-01-14 15:04:00,
2013-01-14 09:09:00,5.0,3.0,30.50,WSW,251,1.0,2.0,91,0.00,,,0.00,VWS V14.01,2013-01-14 15:09:00,
2013-01-14 09:14:00,5.2,3.2,30.50,WSW,250,1.0,2.0,91,0.00,,,0.00,VWS V14.01,2013-01-14 15:14:00,
2013-01-14 09:15:00,11.2,8.1,30.49,WSW,247,0.0,3.0,87,0.00,,,0.00,VWS V14.01,2013-01-14 15:15:00,
2013-01-14 09:19:00,5.4,3.3,30.52,WSW,248,1.0,2.0,91,0.00,,,0.00,VWS V14.01,2013-01-14 15:19:00,
2013-01-14 09:24:00,5.4,3.1,30.52,WSW,248,1.0,2.0,90,0.00,,,0.00,VWS V14.01,2013-01-14 15:24:00,
2013-01-14 09:29:00,5.6,3.3,30.52,WSW,246,0.0,2.0,90,0.00,,,0.00,VWS V14.01,2013-01-14 15:29:00,
2013-01-14 09:30:00,12.4,7.4,30.49,WSW,246,2.0,5.0,80,0.00,,,0.00,VWS V14.01,2013-01-14 15:30:00,
2013-01-14 09:34:00,6.0,3.9,30.51,WSW,247,0.0,3.0,91,0.00,,,0.00,VWS V14.01,2013-01-14 15:34:00,
2013-01-14 09:39:00,6.7,3.9,30.51,WSW,250,2.0,3.0,88,0.00,,,0.00,VWS V14.01,2013-01-14 15:39:00,
2013-01-14 09:44:00,7.2,4.9,30.51,WSW,241,2.0,4.0,90,0.00,,,0.00,VWS V14.01,2013-01-14 15:44:00,
2013-01-14 09:45:00,14.3,8.4,30.48,WSW,246,0.0,5.0,77,0.00,,,0.00,VWS V14.01,2013-01-14 15:45:00,
2013-01-14 09:49:00,7.7,4.9,30.51,WSW,247,0.0,2.0,88,0.00,,,0.00,VWS V14.01,2013-01-14 15:49:00,
2013-01-14 09:54:00,8.1,5.3,30.51,WSW,248,0.0,2.0,88,0.00,,,0.00,VWS V14.01,2013-01-14 15:54:00,
2013-01-14 09:59:00,8.8,6.2,30.51,WSW,248,0.0,2.0,89,0.00,,,0.00,VWS V14.01,2013-01-14 15:59:00,
2013-01-14 10:00:00,15.1,8.9,30.47,WSW,250,2.0,3.0,76,0.00,,,0.00,VWS V14.01,2013-01-14 16:00:00,
2013-01-14 10:04:00,9.5,6.9,30.50,WSW,248,0.0,2.0,89,0.00,,,0.00,VWS V14.01,2013-01-14 16:04:00,
2013-01-14 10:09:00,10.2,7.4,30.50,WSW,246,2.0,3.0,88,0.00,,,0.00,VWS V14.01,2013-01-14 16:09:00,
2013-01-14 10:14:00,10.9,7.8,30.50,WSW,247,3.0,3.0,87,0.00,,,0.00,VWS V14.01,2013-01-14 16:14:00,
2013-01-14 10:15:00,17.0,8.9,30.45,WSW,251,1.0,5.0,70,0.00,,,0.00,VWS V14.01,2013-01-14 16:15:00,
2013-01-14 10:19:00,11.7,7.8,30.49,WSW,247,2.0,3.0,84,0.00,,,0.00,VWS V14.01,2013-01-14 16:19:00,
2013-01-14 10:24:00,12.1,7.4,30.49,WSW,247,2.0,5.0,81,0.00,,,0.00,VWS V14.01,2013-01-14 16:24:00,
2013-01-14 10:29:00,12.4,8.2,30.49,WSW,243,2.0,5.0,83,0.00,,,0.00,VWS V14.01,2013-01-14 16:29:00,
2013-01-14 10:30:00,18.8,7.9,30.44,WSW,247,5.0,7.0,62,0.00,,,0.00,VWS V14.01,2013-01-14 16:30:00,
2013-01-14 10:34:00,12.6,7.3,30.49,WSW,241,2.0,5.0,79,0.00,,,0.00,VWS V14.01,2013-01-14 16:34:00,
2013-01-14 10:39:00,13.3,7.7,30.49,WSW,243,1.0,5.0,78,0.00,,,0.00,VWS V14.01,2013-01-14 16:39:00,
2013-01-14 10:44:00,14.1,9.1,30.49,WSW,246,0.0,5.0,80,0.00,,,0.00,VWS V14.01,2013-01-14 16:44:00,
2013-01-14 10:45:00,20.0,7.2,30.43,WSW,247,0.0,5.0,57,0.00,,,0.00,VWS V14.01,2013-01-14 16:45:00,
2013-01-14 10:49:00,14.8,8.6,30.48,WSW,248,2.0,3.0,76,0.00,,,0.00,VWS V14.01,2013-01-14 16:49:00,
2013-01-14 10:54:00,15.1,8.6,30.48,WSW,250,1.0,3.0,75,0.00,,,0.00,VWS V14.01,2013-01-14 16:54:00,
2013-01-14 10:59:00,15.1,8.9,30.48,WSW,248,1.0,3.0,76,0.00,,,0.00,VWS V14.01,2013-01-14 16:59:00,
2013-01-14 11:00:00,20.3,5.5,30.42,WSW,258,2.0,8.0,52,0.00,,,0.00,VWS V14.01,2013-01-14 17:00:00,
2013-01-14 11:04:00,15.6,9.1,30.47,WSW,248,0.0,2.0,75,0.00,,,0.00,VWS V14.01,2013-01-14 17:04:00,
2013-01-14 11:09:00,16.4,8.3,30.47,WSW,251,2.0,4.0,70,0.00,,,0.00,VWS V14.01,2013-01-14 17:09:00,
2013-01-14 11:14:00,16.9,8.8,30.47,WSW,241,3.0,5.0,70,0.00,,,0.00,VWS V14.01,2013-01-14 17:14:00,
2013-01-14 11:15:00,20.2,5.8,30.41,West,261,4.0,10.0,53,0.00,,,0.00,VWS V14.01,2013-01-14 17:15:00,
2013-01-14 11:19:00,17.5,9.1,30.45,WSW,251,2.0,5.0,69,0.00,,,0.00,VWS V14.01,2013-01-14 17:19:00,
2013-01-14 11:24:00,18.0,7.9,30.45,WSW,256,1.0,5.0,64,0.00,,,0.00,VWS V14.01,2013-01-14 17:24:00,
2013-01-14 11:29:00,18.6,8.1,30.45,West,267,2.0,7.0,63,0.00,,,0.00,VWS V14.01,2013-01-14 17:29:00,
2013-01-14 11:30:00,20.5,4.8,30.40,WSW,258,4.0,9.0,50,0.00,,,0.00,VWS V14.01,2013-01-14 17:30:00,
2013-01-14 11:34:00,19.1,7.5,30.44,West,264,2.0,5.0,60,0.00,,,0.00,VWS V14.01,2013-01-14 17:34:00,
2013-01-14 11:39:00,19.4,6.7,30.44,WSW,251,2.0,5.0,57,0.00,,,0.00,VWS V14.01,2013-01-14 17:39:00,
2013-01-14 11:44:00,19.9,7.1,30.44,West,267,2.0,5.0,57,0.00,,,0.00,VWS V14.01,2013-01-14 17:44:00,
2013-01-14 11:45:00,21.3,5.6,30.39,West,263,3.0,8.0,50,0.00,,,0.00,VWS V14.01,2013-01-14 17:45:00,
2013-01-14 11:49:00,20.0,8.0,30.43,WSW,246,5.0,5.0,59,0.00,,,0.00,VWS V14.01,2013-01-14 17:49:00,
2013-01-14 11:54:00,19.7,6.6,30.43,WSW,239,5.0,5.0,56,0.00,,,0.00,VWS V14.01,2013-01-14 17:54:00,
2013-01-14 11:59:00,20.3,7.1,30.43,West,265,2.0,8.0,56,0.00,,,0.00,VWS V14.01,2013-01-14 17:59:00,
2013-01-14 12:00:00,21.3,5.6,30.39,West,267,3.0,7.0,50,0.00,,,0.00,VWS V14.01,2013-01-14 18:00:00,
2013-01-14 12:04:00,20.3,5.5,30.42,WSW,244,7.0,10.0,52,0.00,,,0.00,VWS V14.01,2013-01-14 18:04:00,
2013-01-14 12:09:00,19.9,5.5,30.42,WSW,243,7.0,10.0,53,0.00,,,0.00,VWS V14.01,2013-01-14 18:09:00,
2013-01-14 12:14:00,20.0,6.4,30.42,WSW,258,2.0,10.0,55,0.00,,,0.00,VWS V14.01,2013-01-14 18:14:00,
2013-01-14 12:15:00,21.4,4.3,30.38,SW,236,3.0,10.0,47,0.00,,,0.00,VWS V14.01,2013-01-14 18:15:00,
2013-01-14 12:19:00,20.6,6.2,30.41,West,275,3.0,6.0,53,0.00,,,0.00,VWS V14.01,2013-01-14 18:19:00,
2013-01-14 12:24:00,20.3,4.2,30.41,WSW,254,2.0,9.0,49,0.00,,,0.00,VWS V14.01,2013-01-14 18:24:00,
2013-01-14 12:29:00,20.5,4.8,30.41,West,260,5.0,9.0,50,0.00,,,0.00,VWS V14.01,2013-01-14 18:29:00,
2013-01-14 12:30:00,20.6,4.9,30.37,WSW,237,7.0,9.0,50,0.00,,,0.00,VWS V14.01,2013-01-14 18:30:00,
2013-01-14 12:34:00,20.8,5.5,30.40,WSW,247,6.0,8.0,51,0.00,,,0.00,VWS V14.01,2013-01-14 18:34:00,
2013-01-14 12:39:00,21.3,6.0,30.40,WSW,244,3.0,8.0,51,0.00,,,0.00,VWS V14.01,2013-01-14 18:39:00,
2013-01-14 12:44:00,21.3,5.6,30.40,West,272,2.0,8.0,50,0.00,,,0.00,VWS V14.01,2013-01-14 18:44:00,
2013-01-14 12:45:00,21.9,6.6,30.36,West,264,2.0,7.0,51,0.00,,,0.00,VWS V14.01,2013-01-14 18:45:00,
2013-01-14 12:49:00,21.3,5.1,30.39,WSW,257,5.0,5.0,49,0.00,,,0.00,VWS V14.01,2013-01-14 18:49:00,
2013-01-14 12:54:00,21.3,4.7,30.39,WSW,244,5.0,7.0,48,0.00,,,0.00,VWS V14.01,2013-01-14 18:54:00,
2013-01-14 12:59:00,21.0,5.3,30.39,WSW,248,3.0,7.0,50,0.00,,,0.00,VWS V14.01,2013-01-14 18:59:00,
2013-01-14 13:00:00,22.5,6.2,30.36,West,275,2.0,6.0,49,0.00,,,0.00,VWS V14.01,2013-01-14 19:00:00,
2013-01-14 13:04:00,21.1,6.2,30.39,SW,234,8.0,8.0,52,0.00,,,0.00,VWS V14.01,2013-01-14 19:04:00,
2013-01-14 13:09:00,21.1,5.4,30.39,SW,224,5.0,10.0,50,0.00,,,0.00,VWS V14.01,2013-01-14 19:09:00,
2013-01-14 13:14:00,21.3,5.6,30.39,WSW,239,3.0,10.0,50,0.00,,,0.00,VWS V14.01,2013-01-14 19:14:00,
2013-01-14 13:15:00,23.3,8.7,30.35,WSW,247,5.0,6.0,53,0.00,,,0.00,VWS V14.01,2013-01-14 19:15:00,
2013-01-14 13:19:00,21.6,4.5,30.38,WSW,257,2.0,5.0,47,0.00,,,0.00,VWS V14.01,2013-01-14 19:19:00,
2013-01-14 13:24:00,20.8,4.2,30.38,WSW,243,7.0,8.0,48,0.00,,,0.00,VWS V14.01,2013-01-14 19:24:00,
2013-01-14 13:29:00,20.6,4.0,30.38,SW,236,8.0,8.0,48,0.00,,,0.00,VWS V14.01,2013-01-14 19:29:00,
2013-01-14 13:30:00,22.7,9.0,30.35,WSW,248,1.0,5.0,55,0.00,,,0.00,VWS V14.01,2013-01-14 19:30:00,
2013-01-14 13:34:00,20.6,4.5,30.37,WSW,247,3.0,7.0,49,0.00,,,0.00,VWS V14.01,2013-01-14 19:34:00,
2013-01-14 13:39:00,21.3,6.4,30.37,WSW,254,3.0,7.0,52,0.00,,,0.00,VWS V14.01,2013-01-14 19:39:00,
2013-01-14 13:44:00,21.6,4.5,30.37,WSW,257,2.0,7.0,47,0.00,,,0.00,VWS V14.01,2013-01-14 19:44:00,
2013-01-14 13:45:00,22.5,8.0,30.35,West,270,2.0,3.0,53,0.00,,,0.00,VWS V14.01,2013-01-14 19:45:00,
2013-01-14 13:49:00,22.1,5.4,30.36,West,271,2.0,6.0,48,0.00,,,0.00,VWS V14.01,2013-01-14 19:49:00,
2013-01-14 13:54:00,22.1,5.9,30.36,WSW,258,0.0,6.0,49,0.00,,,0.00,VWS V14.01,2013-01-14 19:54:00,
2013-01-14 13:59:00,22.4,6.6,30.36,West,277,0.0,6.0,50,0.00,,,0.00,VWS V14.01,2013-01-14 19:59:00,
2013-01-14 14:00:00,23.0,7.6,30.35,WSW,258,0.0,4.0,51,0.00,,,0.00,VWS V14.01,2013-01-14 20:00:00,
2013-01-14 14:04:00,23.0,7.1,30.36,West,281,2.0,5.0,50,0.00,,,0.00,VWS V14.01,2013-01-14 20:04:00,
2013-01-14 14:09:00,23.2,7.8,30.36,WSW,246,0.0,6.0,51,0.00,,,0.00,VWS V14.01,2013-01-14 20:09:00,
2013-01-14 14:14:00,23.2,7.3,30.36,West,280,0.0,6.0,50,0.00,,,0.00,VWS V14.01,2013-01-14 20:14:00,
2013-01-14 14:15:00,23.5,7.2,30.35,WSW,248,2.0,5.0,49,0.00,,,0.00,VWS V14.01,2013-01-14 20:15:00,
2013-01-14 14:19:00,23.5,8.5,30.35,WSW,257,1.0,5.0,52,0.00,,,0.00,VWS V14.01,2013-01-14 20:19:00,
2013-01-14 14:24:00,22.9,8.3,30.35,WSW,239,3.0,5.0,53,0.00,,,0.00,VWS V14.01,2013-01-14 20:24:00,
2013-01-14 14:29:00,22.5,7.5,30.35,WSW,248,2.0,5.0,52,0.00,,,0.00,VWS V14.01,2013-01-14 20:29:00,
2013-01-14 14:30:00,23.6,7.3,30.35,West,280,2.0,5.0,49,0.00,,,0.00,VWS V14.01,2013-01-14 20:30:00,
2013-01-14 14:34:00,22.9,8.8,30.35,WSW,253,1.0,2.0,54,0.00,,,0.00,VWS V14.01,2013-01-14 20:34:00,
2013-01-14 14:39:00,22.9,8.3,30.35,West,263,0.0,2.0,53,0.00,,,0.00,VWS V14.01,2013-01-14 20:39:00,
2013-01-14 14:44:00,22.5,8.0,30.35,West,270,2.0,3.0,53,0.00,,,0.00,VWS V14.01,2013-01-14 20:44:00,
2013-01-14 14:45:00,24.2,7.8,30.35,WNW,294,2.0,3.0,49,0.00,,,0.00,VWS V14.01,2013-01-14 20:45:00,
2013-01-14 14:49:00,22.7,8.6,30.35,West,271,0.0,2.0,54,0.00,,,0.00,VWS V14.01,2013-01-14 20:49:00,
2013-01-14 14:54:00,22.9,7.9,30.35,West,277,0.0,2.0,52,0.00,,,0.00,VWS V14.01,2013-01-14 20:54:00,
2013-01-14 14:59:00,23.0,7.1,30.35,WSW,251,1.0,4.0,50,0.00,,,0.00,VWS V14.01,2013-01-14 20:59:00,
2013-01-14 15:00:00,24.2,6.9,30.35,West,261,2.0,5.0,47,0.00,,,0.00,VWS V14.01,2013-01-14 21:00:00,
2013-01-14 15:04:00,23.2,8.2,30.35,WSW,254,3.0,3.0,52,0.00,,,0.00,VWS V14.01,2013-01-14 21:04:00,
2013-01-14 15:09:00,23.0,6.2,30.35,WSW,247,2.0,5.0,48,0.00,,,0.00,VWS V14.01,2013-01-14 21:09:00,
2013-01-14 15:14:00,23.3,7.0,30.35,West,278,1.0,5.0,49,0.00,,,0.00,VWS V14.01,2013-01-14 21:14:00,
2013-01-14 15:15:00,23.9,7.5,30.36,SW,230,5.0,5.0,49,0.00,,,0.00,VWS V14.01,2013-01-14 21:15:00,
2013-01-14 15:19:00,23.6,5.9,30.35,WSW,244,2.0,3.0,46,0.00,,,0.00,VWS V14.01,2013-01-14 21:19:00,
2013-01-14 15:24:00,23.5,6.2,30.35,West,263,3.0,5.0,47,0.00,,,0.00,VWS V14.01,2013-01-14 21:24:00,
2013-01-14 15:29:00,23.5,6.7,30.35,West,281,1.0,5.0,48,0.00,,,0.00,VWS V14.01,2013-01-14 21:29:00,
2013-01-14 15:30:00,23.9,7.1,30.36,SW,234,2.0,6.0,48,0.00,,,0.00,VWS V14.01,2013-01-14 21:30:00,
2013-01-14 15:34:00,23.8,7.4,30.35,West,260,0.0,3.0,49,0.00,,,0.00,VWS V14.01,2013-01-14 21:34:00,
2013-01-14 15:39:00,23.9,7.1,30.35,WNW,298,1.0,3.0,48,0.00,,,0.00,VWS V14.01,2013-01-14 21:39:00,
2013-01-14 15:44:00,24.2,7.8,30.35,WNW,298,0.0,3.0,49,0.00,,,0.00,VWS V14.01,2013-01-14 21:44:00,
2013-01-14 15:45:00,23.6,7.7,30.36,WSW,248,2.0,5.0,50,0.00,,,0.00,VWS V14.01,2013-01-14 21:45:00,
2013-01-14 15:49:00,24.1,7.3,30.35,WSW,254,1.0,3.0,48,0.00,,,0.00,VWS V14.01,2013-01-14 21:49:00,
2013-01-14 15:54:00,23.9,7.1,30.35,West,270,0.0,3.0,48,0.00,,,0.00,VWS V14.01,2013-01-14 21:54:00,
2013-01-14 15:59:00,24.2,6.9,30.35,West,263,1.0,5.0,47,0.00,,,0.00,VWS V14.01,2013-01-14 21:59:00,
2013-01-14 16:00:00,23.2,8.2,30.36,WSW,241,1.0,5.0,52,0.00,,,0.00,VWS V14.01,2013-01-14 22:00:00,
2013-01-14 16:04:00,24.1,7.7,30.35,WSW,247,1.0,5.0,49,0.00,,,0.00,VWS V14.01,2013-01-14 22:04:00,
2013-01-14 16:09:00,23.9,8.0,30.35,WSW,247,1.0,5.0,50,0.00,,,0.00,VWS V14.01,2013-01-14 22:09:00,
2013-01-14 16:14:00,23.9,7.5,30.35,WSW,253,2.0,5.0,49,0.00,,,0.00,VWS V14.01,2013-01-14 22:14:00,
2013-01-14 16:15:00,22.5,8.4,30.36,SW,230,2.0,3.0,54,0.00,,,0.00,VWS V14.01,2013-01-14 22:15:00,
2013-01-14 16:19:00,23.9,7.5,30.36,WSW,239,5.0,6.0,49,0.00,,,0.00,VWS V14.01,2013-01-14 22:19:00,
2013-01-14 16:24:00,23.9,7.1,30.36,SW,220,3.0,6.0,48,0.00,,,0.00,VWS V14.01,2013-01-14 22:24:00,
2013-01-14 16:29:00,23.9,7.5,30.36,SW,232,0.0,6.0,49,0.00,,,0.00,VWS V14.01,2013-01-14 22:29:00,
2013-01-14 16:30:00,21.8,8.9,30.37,SW,224,2.0,5.0,57,0.00,,,0.00,VWS V14.01,2013-01-14 22:30:00,
2013-01-14 16:34:00,23.8,7.9,30.36,WSW,241,1.0,5.0,50,0.00,,,0.00,VWS V14.01,2013-01-14 22:34:00,
2013-01-14 16:39:00,23.8,7.4,30.36,WSW,241,2.0,5.0,49,0.00,,,0.00,VWS V14.01,2013-01-14 22:39:00,
2013-01-14 16:44:00,23.8,7.9,30.36,WSW,248,3.0,5.0,50,0.00,,,0.00,VWS V14.01,2013-01-14 22:44:00,
2013-01-14 16:45:00,21.4,9.7,30.38,SW,227,2.0,5.0,60,0.00,,,0.00,VWS V14.01,2013-01-14 22:45:00,
2013-01-14 16:49:00,23.5,7.6,30.36,WSW,247,1.0,5.0,50,0.00,,,0.00,VWS V14.01,2013-01-14 22:49:00,
2013-01-14 16:54:00,23.3,7.9,30.36,WSW,243,3.0,5.0,51,0.00,,,0.00,VWS V14.01,2013-01-14 22:54:00,
2013-01-14 16:59:00,23.2,7.8,30.36,WSW,241,3.0,5.0,51,0.00,,,0.00,VWS V14.01,2013-01-14 22:59:00,
2013-01-14 17:00:00,21.1,9.8,30.39,SW,220,2.0,5.0,61,0.00,,,0.00,VWS V14.01,2013-01-14 23:00:00,
2013-01-14 17:04:00,23.0,8.0,30.36,WSW,239,3.0,3.0,52,0.00,,,0.00,VWS V14.01,2013-01-14 23:04:00,
2013-01-14 17:09:00,22.9,8.3,30.36,WSW,237,3.0,3.0,53,0.00,,,0.00,VWS V14.01,2013-01-14 23:09:00,
2013-01-14 17:14:00,22.5,8.0,30.36,SW,234,2.0,3.0,53,0.00,,,0.00,VWS V14.01,2013-01-14 23:14:00,
2013-01-14 17:15:00,20.5,10.3,30.39,SSW,213,2.0,5.0,64,0.00,,,0.00,VWS V14.01,2013-01-14 23:15:00,
2013-01-14 17:19:00,22.2,9.7,30.36,SW,219,3.0,5.0,58,0.00,,,0.00,VWS V14.01,2013-01-14 23:19:00,
2013-01-14 17:24:00,22.1,8.8,30.36,SW,217,3.0,5.0,56,0.00,,,0.00,VWS V14.01,2013-01-14 23:24:00,
2013-01-14 17:29:00,21.8,9.7,30.36,SW,223,2.0,5.0,59,0.00,,,0.00,VWS V14.01,2013-01-14 23:29:00,
2013-01-14 17:30:00,20.2,10.0,30.40,SW,216,2.0,3.0,64,0.00,,,0.00,VWS V14.01,2013-01-14 23:30:00,
2013-01-14 17:34:00,21.6,9.1,30.37,SW,224,3.0,5.0,58,0.00,,,0.00,VWS V14.01,2013-01-14 23:34:00,
2013-01-14 17:39:00,21.6,9.9,30.37,SW,223,2.0,5.0,60,0.00,,,0.00,VWS V14.01,2013-01-14 23:39:00,
2013-01-14 17:44:00,21.4,9.3,30.37,SW,227,2.0,5.0,59,0.00,,,0.00,VWS V14.01,2013-01-14 23:44:00,
2013-01-14 17:45:00,19.7,9.9,30.40,SW,215,0.0,2.0,65,0.00,,,0.00,VWS V14.01,2013-01-14 23:45:00,
2013-01-14 17:49:00,21.3,10.3,30.38,SW,226,3.0,5.0,62,0.00,,,0.00,VWS V14.01,2013-01-14 23:49:00,
2013-01-14 17:54:00,21.1,9.8,30.38,SW,220,3.0,5.0,61,0.00,,,0.00,VWS V14.01,2013-01-14 23:54:00,
2013-01-14 17:59:00,21.1,9.8,30.38,SW,219,1.0,5.0,61,0.00,,,0.00,VWS V14.01,2013-01-14 23:59:00,
2013-01-14 18:00:00,19.2,9.7,30.40,SW,215,2.0,2.0,66,0.00,,,0.00,VWS V14.01,2013-01-15 00:00:00,
2013-01-14 18:04:00,21.0,10.0,30.39,SW,217,2.0,3.0,62,0.00,,,0.00,VWS V14.01,2013-01-15 00:04:00,
2013-01-14 18:09:00,20.8,10.9,30.39,SSW,210,3.0,4.0,65,0.00,,,0.00,VWS V14.01,2013-01-15 00:09:00,
2013-01-14 18:14:00,20.5,9.9,30.39,SSW,213,2.0,5.0,63,0.00,,,0.00,VWS V14.01,2013-01-15 00:14:00,
2013-01-14 18:15:00,19.1,9.6,30.40,SSW,208,5.0,5.0,66,0.00,,,0.00,VWS V14.01,2013-01-15 00:15:00,
2013-01-14 18:19:00,20.3,9.7,30.39,SW,215,2.0,3.0,63,0.00,,,0.00,VWS V14.01,2013-01-15 00:19:00,
2013-01-14 18:24:00,20.3,9.4,30.39,SW,216,1.0,3.0,62,0.00,,,0.00,VWS V14.01,2013-01-15 00:24:00,
2013-01-14 18:29:00,20.2,8.9,30.39,SW,216,2.0,3.0,61,0.00,,,0.00,VWS V14.01,2013-01-15 00:29:00,
2013-01-14 18:30:00,19.1,10.3,30.40,SSW,200,1.0,5.0,68,0.00,,,0.00,VWS V14.01,2013-01-15 00:30:00,
2013-01-14 18:34:00,20.0,9.4,30.40,SW,216,2.0,2.0,63,0.00,,,0.00,VWS V14.01,2013-01-15 00:34:00,
2013-01-14 18:39:00,19.9,9.7,30.40,SW,215,0.0,2.0,64,0.00,,,0.00,VWS V14.01,2013-01-15 00:39:00,
2013-01-14 18:44:00,19.7,9.9,30.40,SW,215,0.0,2.0,65,0.00,,,0.00,VWS V14.01,2013-01-15 00:44:00,
2013-01-14 18:45:00,19.1,10.9,30.40,SSW,202,1.0,2.0,70,0.00,,,0.00,VWS V14.01,2013-01-15 00:45:00,
2013-01-14 18:49:00,19.5,9.7,30.40,SW,215,0.0,2.0,65,0.00,,,0.00,VWS V14.01,2013-01-15 00:49:00,
2013-01-14 18:54:00,19.4,9.9,30.40,SW,215,0.0,2.0,66,0.00,,,0.00,VWS V14.01,2013-01-15 00:54:00,
2013-01-14 18:59:00,19.2,9.7,30.40,SW,215,0.0,2.0,66,0.00,,,0.00,VWS V14.01,2013-01-15 00:59:00,
2013-01-14 19:00:00,18.9,11.4,30.40,SSW,202,1.0,2.0,72,0.00,,,0.00,VWS V14.01,2013-01-15 01:00:00,
2013-01-14 19:04:00,19.2,10.4,30.40,SSW,213,1.0,2.0,68,0.00,,,0.00,VWS V14.01,2013-01-15 01:04:00,
2013-01-14 19:09:00,19.1,10.0,30.40,SSW,209,2.0,3.0,67,0.00,,,0.00,VWS V14.01,2013-01-15 01:09:00,
2013-01-14 19:14:00,19.1,10.0,30.40,SSW,208,2.0,3.0,67,0.00,,,0.00,VWS V14.01,2013-01-15 01:14:00,
2013-01-14 19:15:00,18.4,12.1,30.39,SSW,200,0.0,2.0,76,0.00,,,0.00,VWS V14.01,2013-01-15 01:15:00,
2013-01-14 19:19:00,19.1,10.6,30.40,SSW,205,2.0,5.0,69,0.00,,,0.00,VWS V14.01,2013-01-15 01:19:00,
2013-01-14 19:24:00,19.1,10.3,30.40,SSW,202,2.0,5.0,68,0.00,,,0.00,VWS V14.01,2013-01-15 01:24:00,
2013-01-14 19:29:00,19.1,10.3,30.40,SSW,202,1.0,5.0,68,0.00,,,0.00,VWS V14.01,2013-01-15 01:29:00,
2013-01-14 19:30:00,18.3,12.6,30.39,SSW,200,0.0,0.0,78,0.00,,,0.00,VWS V14.01,2013-01-15 01:30:00,
2013-01-14 19:34:00,19.1,10.6,30.40,SSW,202,0.0,2.0,69,0.00,,,0.00,VWS V14.01,2013-01-15 01:34:00,
2013-01-14 19:39:00,19.1,10.6,30.40,SSW,200,0.0,2.0,69,0.00,,,0.00,VWS V14.01,2013-01-15 01:39:00,
2013-01-14 19:44:00,19.1,10.9,30.40,SSW,202,1.0,2.0,70,0.00,,,0.00,VWS V14.01,2013-01-15 01:44:00,
2013-01-14 19:45:00,17.7,13.4,30.39,SSW,200,0.0,0.0,83,0.00,,,0.00,VWS V14.01,2013-01-15 01:45:00,
2013-01-14 19:49:00,19.1,10.9,30.40,SSW,202,0.0,2.0,70,0.00,,,0.00,VWS V14.01,2013-01-15 01:49:00,
2013-01-14 19:54:00,19.1,11.3,30.40,SSW,202,0.0,2.0,71,0.00,,,0.00,VWS V14.01,2013-01-15 01:54:00,
2013-01-14 19:59:00,18.9,11.4,30.40,SSW,202,2.0,2.0,72,0.00,,,0.00,VWS V14.01,2013-01-15 01:59:00,
2013-01-14 20:00:00,16.9,14.5,30.39,SSW,200,0.0,0.0,90,0.00,,,0.00,VWS V14.01,2013-01-15 02:00:00,
2013-01-14 20:04:00,18.8,11.6,30.40,SSW,202,1.0,2.0,73,0.00,,,0.00,VWS V14.01,2013-01-15 02:04:00,
2013-01-14 20:09:00,18.6,12.0,30.40,SSW,200,0.0,2.0,75,0.00,,,0.00,VWS V14.01,2013-01-15 02:09:00,
2013-01-14 20:14:00,18.4,11.8,30.40,SSW,200,0.0,2.0,75,0.00,,,0.00,VWS V14.01,2013-01-15 02:14:00,
2013-01-14 20:15:00,16.7,14.8,30.36,SSW,200,0.0,0.0,92,0.00,,,0.00,VWS V14.01,2013-01-15 02:15:00,
2013-01-14 20:19:00,18.4,12.1,30.39,SSW,200,0.0,0.0,76,0.00,,,0.00,VWS V14.01,2013-01-15 02:19:00,
2013-01-14 20:24:00,18.3,12.3,30.39,SSW,200,0.0,0.0,77,0.00,,,0.00,VWS V14.01,2013-01-15 02:24:00,
2013-01-14 20:29:00,18.3,12.6,30.39,SSW,200,0.0,0.0,78,0.00,,,0.00,VWS V14.01,2013-01-15 02:29:00,
2013-01-14 20:30:00,15.9,14.5,30.37,SSW,200,0.0,2.0,94,0.00,,,0.00,VWS V14.01,2013-01-15 02:30:00,
2013-01-14 20:34:00,18.1,12.4,30.39,SSW,200,0.0,0.0,78,0.00,,,0.00,VWS V14.01,2013-01-15 02:34:00,
2013-01-14 20:39:00,17.8,12.4,30.39,SSW,200,0.0,0.0,79,0.00,,,0.00,VWS V14.01,2013-01-15 02:39:00,
2013-01-14 20:44:00,17.7,13.1,30.39,SSW,200,0.0,0.0,82,0.00,,,0.00,VWS V14.01,2013-01-15 02:44:00,
2013-01-14 20:45:00,15.6,14.9,30.37,SSW,200,0.0,2.0,97,0.00,,,0.00,VWS V14.01,2013-01-15 02:45:00,
2013-01-14 20:49:00,17.3,13.6,30.39,SSW,200,0.0,0.0,85,0.00,,,0.00,VWS V14.01,2013-01-15 02:49:00,
2013-01-14 20:54:00,17.2,14.0,30.39,SSW,200,0.0,0.0,87,0.00,,,0.00,VWS V14.01,2013-01-15 02:54:00,
2013-01-14 20:59:00,16.9,14.5,30.39,SSW,200,0.0,0.0,90,0.00,,,0.00,VWS V14.01,2013-01-15 02:59:00,
2013-01-14 21:00:00,15.1,14.6,30.37,SSW,199,1.0,2.0,98,0.00,,,0.00,VWS V14.01,2013-01-15 03:00:00,
2013-01-14 21:04:00,16.9,14.7,30.39,SSW,200,0.0,0.0,91,0.00,,,0.00,VWS V14.01,2013-01-15 03:04:00,
2013-01-14 21:09:00,16.7,14.8,30.39,SSW,200,0.0,0.0,92,0.00,,,0.00,VWS V14.01,2013-01-15 03:09:00,
2013-01-14 21:15:00,16.7,14.8,30.39,SSW,200,0.0,0.0,92,0.00,,,0.00,VWS V14.01,2013-01-15 03:15:00,
2013-01-14 21:19:00,16.5,14.8,30.36,SSW,200,0.0,0.0,93,0.00,,,0.00,VWS V14.01,2013-01-15 03:19:00,
2013-01-14 21:25:00,16.2,14.8,30.36,SSW,200,2.0,2.0,94,0.00,,,0.00,VWS V14.01,2013-01-15 03:25:00,
2013-01-14 21:30:00,15.9,14.5,30.36,SSW,200,0.0,2.0,94,0.00,,,0.00,VWS V14.01,2013-01-15 03:30:00,
2013-01-14 21:35:00,15.7,14.5,30.37,SSW,200,0.0,1.0,95,0.00,,,0.00,VWS V14.01,2013-01-15 03:35:00,
2013-01-14 21:40:00,15.7,14.5,30.37,SSW,200,1.0,1.0,95,0.00,,,0.00,VWS V14.01,2013-01-15 03:40:00,
2013-01-14 21:45:00,15.7,15.0,30.37,SSW,200,1.0,2.0,97,0.00,,,0.00,VWS V14.01,2013-01-15 03:45:00,
2013-01-14 21:50:00,15.6,14.9,30.37,SSW,199,1.0,2.0,97,0.00,,,0.00,VWS V14.01,2013-01-15 03:50:00,
2013-01-14 21:55:00,15.4,14.9,30.37,SSW,199,2.0,2.0,98,0.00,,,0.00,VWS V14.01,2013-01-15 03:55:00,
2013-01-14 22:00:00,15.1,14.6,30.37,SSW,199,0.0,2.0,98,0.00,,,0.00,VWS V14.01,2013-01-15 04:00:00,
2013-01-14 22:05:00,14.9,14.4,30.37,SSW,198,0.0,2.0,98,0.00,,,0.00,VWS V14.01,2013-01-15 04:05:00,
2013-01-14 22:10:00,14.8,14.3,30.37,SSW,198,0.0,2.0,98,0.00,,,0.00,VWS V14.01,2013-01-15 04:10:00,
2013-01-14 22:15:00,14.6,14.1,30.37,SSW,198,0.0,2.0,98,0.00,,,0.00,VWS V14.01,2013-01-15 04:15:00,
2013-01-14 22:20:00,14.4,13.9,30.35,SSW,198,1.0,2.0,98,0.00,,,0.00,VWS V14.01,2013-01-15 04:20:00,
2013-01-14 22:25:00,14.3,13.8,30.35,SSW,198,0.0,2.0,98,0.00,,,0.00,VWS V14.01,2013-01-15 04:25:00,
2013-01-14 22:30:00,14.3,13.8,30.35,SSW,198,0.0,2.0,98,0.00,,,0.00,VWS V14.01,2013-01-15 04:30:00,
2013-01-14 22:35:00,14.3,13.8,30.35,SSW,198,0.0,0.0,98,0.00,,,0.00,VWS V14.01,2013-01-15 04:35:00,
2013-01-14 22:40:00,14.1,13.6,30.35,SSW,198,0.0,0.0,98,0.00,,,0.00,VWS V14.01,2013-01-15 04:40:00,
2013-01-14 22:45:00,14.1,13.6,30.35,SSW,198,0.0,0.0,98,0.00,,,0.00,VWS V14.01,2013-01-15 04:45:00,
2013-01-14 22:50:00,14.1,13.9,30.35,SSW,196,1.0,2.0,99,0.00,,,0.00,VWS V14.01,2013-01-15 04:50:00,
2013-01-14 22:55:00,14.0,13.8,30.35,SSW,196,2.0,2.0,99,0.00,,,0.00,VWS V14.01,2013-01-15 04:55:00,
2013-01-14 23:00:00,13.8,13.8,30.35,SSW,196,0.0,2.0,100,0.00,,,0.00,VWS V14.01,2013-01-15 05:00:00,
2013-01-14 23:01:00,13.8,13.8,30.35,SSW,196,2.0,2.0,100,0.00,,,0.00,VWS V14.01,2013-01-15 05:01:00,
2013-01-14 23:02:00,13.8,13.8,30.35,SSW,196,0.0,2.0,100,0.00,,,0.00,VWS V14.01,2013-01-15 05:02:00,
2013-01-14 23:03:00,13.8,13.8,30.35,SSW,196,1.0,2.0,100,0.00,,,0.00,VWS V14.01,2013-01-15 05:03:00,
2013-01-14 23:08:00,13.8,13.8,30.35,SSW,196,0.0,2.0,100,0.00,,,0.00,VWS V14.01,2013-01-15 05:08:00,
2013-01-14 23:13:00,13.8,13.8,30.35,SSW,196,2.0,2.0,100,0.00,,,0.00,VWS V14.01,2013-01-15 05:13:00,
2013-01-14 23:15:00,16.7,16.7,30.31,South,188,5.0,7.0,100,0.00,,,0.00,VWS V14.01,2013-01-15 05:15:00,
2013-01-14 23:18:00,13.8,13.8,30.33,SSW,196,1.0,2.0,100,0.00,,,0.00,VWS V14.01,2013-01-15 05:18:00,
2013-01-14 23:23:00,13.8,13.8,30.33,SSW,196,2.0,2.0,100,0.00,,,0.00,VWS V14.01,2013-01-15 05:23:00,
2013-01-14 23:28:00,13.6,13.6,30.33,SSW,195,1.0,3.0,100,0.00,,,0.00,VWS V14.01,2013-01-15 05:28:00,
2013-01-14 23:30:00,17.2,17.2,30.31,SSW,195,2.0,8.0,100,0.00,,,0.00,VWS V14.01,2013-01-15 05:30:00,
2013-01-14 23:33:00,13.5,13.5,30.33,SSW,193,2.0,3.0,100,0.00,,,0.00,VWS V14.01,2013-01-15 05:33:00,
2013-01-14 23:38:00,13.1,13.1,30.33,SSW,193,3.0,3.0,100,0.00,,,0.00,VWS V14.01,2013-01-15 05:38:00,
2013-01-14 23:43:00,13.1,13.1,30.33,SSW,192,2.0,3.0,100,0.00,,,0.00,VWS V14.01,2013-01-15 05:43:00,
2013-01-14 23:45:00,17.7,17.7,30.31,South,191,2.0,9.0,100,0.00,,,0.00,VWS V14.01,2013-01-15 05:45:00,
2013-01-14 23:48:00,13.6,13.6,30.33,South,188,2.0,5.0,100,0.00,,,0.00,VWS V14.01,2013-01-15 05:48:00,
2013-01-14 23:53:00,14.3,14.3,30.33,South,188,1.0,5.0,100,0.00,,,0.00,VWS V14.01,2013-01-15 05:53:00,
2013-01-14 23:58:00,14.9,14.9,30.33,SSW,193,3.0,5.0,100,0.00,,,0.00,VWS V14.01,2013-01-15 05:58:00,